sensor_id;sensor_type;location;lat;lon;timestamp;temperature;humidity
35377;DHT22;21480;51.642;4.834;2022-08-03T00:01:37;17.10;99.90
35377;DHT22;21480;51.642;4.834;2022-08-03T00:04:04;17.00;99.90
35377;DHT22;21480;51.642;4.834;2022-08-03T00:06:30;17.00;99.90
35377;DHT22;21480;51.642;4.834;2022-08-03T00:08:56;16.90;99.90
35377;DHT22;21480;51.642;4.834;2022-08-03T00:11:22;16.90;99.90
35377;DHT22;21480;51.642;4.834;2022-08-03T00:13:48;16.80;99.90
35377;DHT22;21480;51.642;4.834;2022-08-03T00:16:13;16.80;99.90
35377;DHT22;21480;51.642;4.834;2022-08-03T00:18:39;16.90;99.90
35377;DHT22;21480;51.642;4.834;2022-08-03T00:21:05;16.90;99.90
35377;DHT22;21480;51.642;4.834;2022-08-03T00:23:31;16.80;99.90
35377;DHT22;21480;51.642;4.834;2022-08-03T00:25:59;16.80;99.90
35377;DHT22;21480;51.642;4.834;2022-08-03T00:28:25;16.80;99.90
35377;DHT22;21480;51.642;4.834;2022-08-03T00:30:51;16.80;99.90
35377;DHT22;21480;51.642;4.834;2022-08-03T00:33:17;16.70;99.90
35377;DHT22;21480;51.642;4.834;2022-08-03T00:35:42;16.70;99.90
35377;DHT22;21480;51.642;4.834;2022-08-03T00:38:08;16.70;99.90
35377;DHT22;21480;51.642;4.834;2022-08-03T00:40:34;16.70;99.90
35377;DHT22;21480;51.642;4.834;2022-08-03T00:43:05;16.60;99.90
35377;DHT22;21480;51.642;4.834;2022-08-03T00:45:33;16.60;99.90
35377;DHT22;21480;51.642;4.834;2022-08-03T00:48:00;16.60;99.90
35377;DHT22;21480;51.642;4.834;2022-08-03T00:50:27;16.50;99.90
35377;DHT22;21480;51.642;4.834;2022-08-03T00:52:55;16.50;99.90
35377;DHT22;21480;51.642;4.834;2022-08-03T00:55:22;16.50;99.90
35377;DHT22;21480;51.642;4.834;2022-08-03T00:57:48;16.50;99.90
35377;DHT22;21480;51.642;4.834;2022-08-03T01:00:16;16.50;99.90
35377;DHT22;21480;51.642;4.834;2022-08-03T01:02:45;16.40;99.90
35377;DHT22;21480;51.642;4.834;2022-08-03T01:05:12;16.40;99.90
35377;DHT22;21480;51.642;4.834;2022-08-03T01:08:09;16.40;99.90
35377;DHT22;21480;51.642;4.834;2022-08-03T01:17:04;16.40;99.90
35377;DHT22;21480;51.642;4.834;2022-08-03T01:27:58;16.60;99.90
35377;DHT22;21480;51.642;4.834;2022-08-03T01:30:32;16.70;99.90
35377;DHT22;21480;51.642;4.834;2022-08-03T01:33:02;16.90;99.90
35377;DHT22;21480;51.642;4.834;2022-08-03T01:35:40;16.90;99.90
35377;DHT22;21480;51.642;4.834;2022-08-03T01:38:21;16.90;99.90
35377;DHT22;21480;51.642;4.834;2022-08-03T01:40:47;16.80;99.90
35377;DHT22;21480;51.642;4.834;2022-08-03T01:43:18;16.70;99.90
35377;DHT22;21480;51.642;4.834;2022-08-03T01:45:45;16.70;99.90
35377;DHT22;21480;51.642;4.834;2022-08-03T01:48:15;16.80;99.90
35377;DHT22;21480;51.642;4.834;2022-08-03T01:50:42;17.00;99.90
35377;DHT22;21480;51.642;4.834;2022-08-03T01:53:09;17.00;99.90
35377;DHT22;21480;51.642;4.834;2022-08-03T01:55:38;17.00;99.90
35377;DHT22;21480;51.642;4.834;2022-08-03T01:58:05;17.00;99.90
35377;DHT22;21480;51.642;4.834;2022-08-03T02:00:35;17.00;99.90
35377;DHT22;21480;51.642;4.834;2022-08-03T02:03:05;16.90;99.90
35377;DHT22;21480;51.642;4.834;2022-08-03T02:05:32;16.90;99.90
35377;DHT22;21480;51.642;4.834;2022-08-03T02:07:59;16.90;99.90
35377;DHT22;21480;51.642;4.834;2022-08-03T02:10:27;16.80;99.90
35377;DHT22;21480;51.642;4.834;2022-08-03T02:12:53;16.70;99.90
35377;DHT22;21480;51.642;4.834;2022-08-03T02:15:21;16.70;99.90
35377;DHT22;21480;51.642;4.834;2022-08-03T02:17:47;16.60;99.90
35377;DHT22;21480;51.642;4.834;2022-08-03T02:20:15;16.60;99.90
35377;DHT22;21480;51.642;4.834;2022-08-03T02:22:42;16.50;99.90
35377;DHT22;21480;51.642;4.834;2022-08-03T02:25:10;16.50;99.90
35377;DHT22;21480;51.642;4.834;2022-08-03T02:27:50;16.50;99.90
35377;DHT22;21480;51.642;4.834;2022-08-03T02:30:18;16.50;99.90
35377;DHT22;21480;51.642;4.834;2022-08-03T02:32:50;16.60;99.90
35377;DHT22;21480;51.642;4.834;2022-08-03T02:35:18;16.60;99.90
35377;DHT22;21480;51.642;4.834;2022-08-03T02:37:52;16.60;99.90
35377;DHT22;21480;51.642;4.834;2022-08-03T02:40:22;16.70;99.90
35377;DHT22;21480;51.642;4.834;2022-08-03T02:42:51;16.70;99.90
35377;DHT22;21480;51.642;4.834;2022-08-03T02:45:19;16.70;99.90
35377;DHT22;21480;51.642;4.834;2022-08-03T02:47:45;16.70;99.90
35377;DHT22;21480;51.642;4.834;2022-08-03T02:50:15;16.80;99.90
35377;DHT22;21480;51.642;4.834;2022-08-03T02:52:43;16.70;99.90
35377;DHT22;21480;51.642;4.834;2022-08-03T02:55:13;16.70;99.90
35377;DHT22;21480;51.642;4.834;2022-08-03T02:57:40;16.70;99.90
35377;DHT22;21480;51.642;4.834;2022-08-03T03:00:07;16.70;99.90
35377;DHT22;21480;51.642;4.834;2022-08-03T03:02:34;16.70;99.90
35377;DHT22;21480;51.642;4.834;2022-08-03T03:05:01;16.70;99.90
35377;DHT22;21480;51.642;4.834;2022-08-03T03:07:27;16.60;99.90
35377;DHT22;21480;51.642;4.834;2022-08-03T03:09:53;16.60;99.90
35377;DHT22;21480;51.642;4.834;2022-08-03T03:12:20;16.60;99.90
35377;DHT22;21480;51.642;4.834;2022-08-03T03:14:46;16.60;99.90
35377;DHT22;21480;51.642;4.834;2022-08-03T03:17:14;16.60;99.90
35377;DHT22;21480;51.642;4.834;2022-08-03T03:19:41;16.70;99.90
35377;DHT22;21480;51.642;4.834;2022-08-03T03:22:10;16.70;99.90
35377;DHT22;21480;51.642;4.834;2022-08-03T03:24:36;16.70;99.90
35377;DHT22;21480;51.642;4.834;2022-08-03T03:27:02;16.60;99.90
35377;DHT22;21480;51.642;4.834;2022-08-03T03:29:28;16.60;99.90
35377;DHT22;21480;51.642;4.834;2022-08-03T03:31:54;16.50;99.90
35377;DHT22;21480;51.642;4.834;2022-08-03T03:34:22;16.50;99.90
35377;DHT22;21480;51.642;4.834;2022-08-03T03:36:48;16.50;99.90
35377;DHT22;21480;51.642;4.834;2022-08-03T03:39:14;16.50;99.90
35377;DHT22;21480;51.642;4.834;2022-08-03T03:41:39;16.50;99.90
35377;DHT22;21480;51.642;4.834;2022-08-03T03:44:05;16.40;99.90
35377;DHT22;21480;51.642;4.834;2022-08-03T03:46:31;16.40;99.90
35377;DHT22;21480;51.642;4.834;2022-08-03T03:48:57;16.40;99.90
35377;DHT22;21480;51.642;4.834;2022-08-03T03:51:23;16.40;99.90
35377;DHT22;21480;51.642;4.834;2022-08-03T03:53:58;16.30;99.90
35377;DHT22;21480;51.642;4.834;2022-08-03T03:56:25;16.30;99.90
35377;DHT22;21480;51.642;4.834;2022-08-03T03:58:51;16.30;99.90
35377;DHT22;21480;51.642;4.834;2022-08-03T04:01:16;16.30;99.90
35377;DHT22;21480;51.642;4.834;2022-08-03T04:03:42;16.30;99.90
35377;DHT22;21480;51.642;4.834;2022-08-03T04:06:08;16.30;99.90
35377;DHT22;21480;51.642;4.834;2022-08-03T04:08:52;16.30;99.90
35377;DHT22;21480;51.642;4.834;2022-08-03T04:11:46;16.30;99.90
35377;DHT22;21480;51.642;4.834;2022-08-03T04:14:25;16.30;99.90
35377;DHT22;21480;51.642;4.834;2022-08-03T04:17:00;16.40;99.90
35377;DHT22;21480;51.642;4.834;2022-08-03T04:19:31;16.40;99.90
35377;DHT22;21480;51.642;4.834;2022-08-03T04:22:01;16.40;99.90
35377;DHT22;21480;51.642;4.834;2022-08-03T04:24:49;16.50;99.90
35377;DHT22;21480;51.642;4.834;2022-08-03T04:27:19;16.60;99.90
35377;DHT22;21480;51.642;4.834;2022-08-03T04:29:47;16.60;99.90
35377;DHT22;21480;51.642;4.834;2022-08-03T04:32:14;16.70;99.90
35377;DHT22;21480;51.642;4.834;2022-08-03T04:34:40;16.70;99.90
35377;DHT22;21480;51.642;4.834;2022-08-03T04:37:11;16.70;99.90
35377;DHT22;21480;51.642;4.834;2022-08-03T04:39:41;16.70;99.90
35377;DHT22;21480;51.642;4.834;2022-08-03T04:42:08;16.80;99.90
35377;DHT22;21480;51.642;4.834;2022-08-03T04:44:39;16.80;99.90
35377;DHT22;21480;51.642;4.834;2022-08-03T04:47:05;16.80;99.90
35377;DHT22;21480;51.642;4.834;2022-08-03T04:49:32;16.80;99.90
35377;DHT22;21480;51.642;4.834;2022-08-03T04:51:59;16.80;99.90
35377;DHT22;21480;51.642;4.834;2022-08-03T04:54:25;16.80;99.90
35377;DHT22;21480;51.642;4.834;2022-08-03T04:56:51;16.80;99.90
35377;DHT22;21480;51.642;4.834;2022-08-03T04:59:17;16.80;99.90
35377;DHT22;21480;51.642;4.834;2022-08-03T05:01:43;16.90;99.90
35377;DHT22;21480;51.642;4.834;2022-08-03T05:04:09;17.00;99.90
35377;DHT22;21480;51.642;4.834;2022-08-03T05:06:35;17.10;99.90
35377;DHT22;21480;51.642;4.834;2022-08-03T05:09:01;17.20;99.90
35377;DHT22;21480;51.642;4.834;2022-08-03T05:11:27;17.40;99.90
35377;DHT22;21480;51.642;4.834;2022-08-03T05:13:53;17.50;99.90
35377;DHT22;21480;51.642;4.834;2022-08-03T05:16:19;17.60;99.90
35377;DHT22;21480;51.642;4.834;2022-08-03T05:18:44;17.90;99.90
35377;DHT22;21480;51.642;4.834;2022-08-03T05:21:10;18.10;99.90
35377;DHT22;21480;51.642;4.834;2022-08-03T05:23:39;18.30;99.90
35377;DHT22;21480;51.642;4.834;2022-08-03T05:26:04;18.50;99.90
35377;DHT22;21480;51.642;4.834;2022-08-03T05:28:30;18.70;99.90
35377;DHT22;21480;51.642;4.834;2022-08-03T05:30:56;19.00;99.90
35377;DHT22;21480;51.642;4.834;2022-08-03T05:33:22;19.20;99.90
35377;DHT22;21480;51.642;4.834;2022-08-03T05:35:47;19.40;99.90
35377;DHT22;21480;51.642;4.834;2022-08-03T05:38:13;19.50;99.90
35377;DHT22;21480;51.642;4.834;2022-08-03T05:40:39;19.60;99.90
35377;DHT22;21480;51.642;4.834;2022-08-03T05:43:05;19.70;99.90
35377;DHT22;21480;51.642;4.834;2022-08-03T05:45:30;19.70;99.90
35377;DHT22;21480;51.642;4.834;2022-08-03T05:47:59;19.70;99.90
35377;DHT22;21480;51.642;4.834;2022-08-03T05:50:25;19.70;99.90
35377;DHT22;21480;51.642;4.834;2022-08-03T05:52:54;19.70;99.90
35377;DHT22;21480;51.642;4.834;2022-08-03T05:55:22;19.80;99.90
35377;DHT22;21480;51.642;4.834;2022-08-03T05:57:50;19.80;99.90
35377;DHT22;21480;51.642;4.834;2022-08-03T06:00:16;19.80;99.90
35377;DHT22;21480;51.642;4.834;2022-08-03T06:02:42;19.90;99.90
35377;DHT22;21480;51.642;4.834;2022-08-03T06:05:08;20.00;99.90
35377;DHT22;21480;51.642;4.834;2022-08-03T06:07:34;20.00;99.90
35377;DHT22;21480;51.642;4.834;2022-08-03T06:10:01;20.10;99.90
35377;DHT22;21480;51.642;4.834;2022-08-03T06:12:28;20.10;99.90
35377;DHT22;21480;51.642;4.834;2022-08-03T06:14:54;20.20;99.90
35377;DHT22;21480;51.642;4.834;2022-08-03T06:17:20;20.30;99.90
35377;DHT22;21480;51.642;4.834;2022-08-03T06:19:45;20.30;99.90
35377;DHT22;21480;51.642;4.834;2022-08-03T06:22:11;20.40;99.90
35377;DHT22;21480;51.642;4.834;2022-08-03T06:24:37;20.50;99.90
35377;DHT22;21480;51.642;4.834;2022-08-03T06:27:02;20.50;99.90
35377;DHT22;21480;51.642;4.834;2022-08-03T06:29:29;20.60;99.90
35377;DHT22;21480;51.642;4.834;2022-08-03T06:31:54;20.70;99.90
35377;DHT22;21480;51.642;4.834;2022-08-03T06:34:20;20.80;99.90
35377;DHT22;21480;51.642;4.834;2022-08-03T06:36:46;20.90;99.90
35377;DHT22;21480;51.642;4.834;2022-08-03T06:39:14;20.90;99.90
35377;DHT22;21480;51.642;4.834;2022-08-03T06:41:40;20.90;99.90
35377;DHT22;21480;51.642;4.834;2022-08-03T06:44:05;20.90;99.90
35377;DHT22;21480;51.642;4.834;2022-08-03T06:46:31;21.00;99.90
35377;DHT22;21480;51.642;4.834;2022-08-03T06:48:56;21.10;99.90
35377;DHT22;21480;51.642;4.834;2022-08-03T06:51:22;21.20;99.90
35377;DHT22;21480;51.642;4.834;2022-08-03T06:53:48;21.30;99.90
35377;DHT22;21480;51.642;4.834;2022-08-03T06:56:14;21.30;99.90
35377;DHT22;21480;51.642;4.834;2022-08-03T06:58:40;21.40;99.90
35377;DHT22;21480;51.642;4.834;2022-08-03T07:01:06;21.40;99.90
35377;DHT22;21480;51.642;4.834;2022-08-03T07:03:31;21.60;99.90
35377;DHT22;21480;51.642;4.834;2022-08-03T07:05:57;21.60;99.90
35377;DHT22;21480;51.642;4.834;2022-08-03T07:08:23;21.60;99.90
35377;DHT22;21480;51.642;4.834;2022-08-03T07:10:49;21.60;99.90
35377;DHT22;21480;51.642;4.834;2022-08-03T07:13:14;21.70;99.90
35377;DHT22;21480;51.642;4.834;2022-08-03T07:15:40;21.70;99.90
35377;DHT22;21480;51.642;4.834;2022-08-03T07:18:06;21.80;99.90
35377;DHT22;21480;51.642;4.834;2022-08-03T07:20:32;21.90;99.90
35377;DHT22;21480;51.642;4.834;2022-08-03T07:22:57;22.00;99.90
35377;DHT22;21480;51.642;4.834;2022-08-03T07:25:23;22.00;99.90
35377;DHT22;21480;51.642;4.834;2022-08-03T07:27:49;22.10;99.90
35377;DHT22;21480;51.642;4.834;2022-08-03T07:30:15;22.30;99.90
35377;DHT22;21480;51.642;4.834;2022-08-03T07:32:41;22.40;99.90
35377;DHT22;21480;51.642;4.834;2022-08-03T07:35:08;22.30;99.90
35377;DHT22;21480;51.642;4.834;2022-08-03T07:37:35;22.40;99.90
35377;DHT22;21480;51.642;4.834;2022-08-03T07:40:03;22.50;99.90
35377;DHT22;21480;51.642;4.834;2022-08-03T07:42:30;22.60;99.90
35377;DHT22;21480;51.642;4.834;2022-08-03T07:44:56;22.60;99.90
35377;DHT22;21480;51.642;4.834;2022-08-03T07:47:26;22.80;99.90
35377;DHT22;21480;51.642;4.834;2022-08-03T07:49:53;22.80;99.90
35377;DHT22;21480;51.642;4.834;2022-08-03T07:52:19;22.90;99.90
35377;DHT22;21480;51.642;4.834;2022-08-03T07:55:04;23.10;99.90
35377;DHT22;21480;51.642;4.834;2022-08-03T07:57:31;23.20;99.90
35377;DHT22;21480;51.642;4.834;2022-08-03T08:00:03;23.30;99.90
35377;DHT22;21480;51.642;4.834;2022-08-03T08:02:29;23.30;99.90
35377;DHT22;21480;51.642;4.834;2022-08-03T08:04:55;23.30;99.90
35377;DHT22;21480;51.642;4.834;2022-08-03T08:07:20;23.40;99.90
35377;DHT22;21480;51.642;4.834;2022-08-03T08:09:46;23.40;99.90
35377;DHT22;21480;51.642;4.834;2022-08-03T08:12:12;23.40;99.90
35377;DHT22;21480;51.642;4.834;2022-08-03T08:14:38;23.50;99.90
35377;DHT22;21480;51.642;4.834;2022-08-03T08:17:04;23.60;99.90
35377;DHT22;21480;51.642;4.834;2022-08-03T08:19:30;23.70;99.90
35377;DHT22;21480;51.642;4.834;2022-08-03T08:21:55;23.80;99.90
35377;DHT22;21480;51.642;4.834;2022-08-03T08:24:21;23.80;99.90
35377;DHT22;21480;51.642;4.834;2022-08-03T08:26:47;23.80;99.90
35377;DHT22;21480;51.642;4.834;2022-08-03T08:29:12;23.80;99.90
35377;DHT22;21480;51.642;4.834;2022-08-03T08:31:38;24.00;99.90
35377;DHT22;21480;51.642;4.834;2022-08-03T08:34:07;24.10;99.90
35377;DHT22;21480;51.642;4.834;2022-08-03T08:36:33;24.10;99.90
35377;DHT22;21480;51.642;4.834;2022-08-03T08:38:59;24.20;99.90
35377;DHT22;21480;51.642;4.834;2022-08-03T08:41:26;24.30;99.90
35377;DHT22;21480;51.642;4.834;2022-08-03T08:43:53;24.30;99.90
35377;DHT22;21480;51.642;4.834;2022-08-03T08:46:19;24.40;99.90
35377;DHT22;21480;51.642;4.834;2022-08-03T08:48:45;24.50;99.90
35377;DHT22;21480;51.642;4.834;2022-08-03T08:51:13;24.60;99.90
35377;DHT22;21480;51.642;4.834;2022-08-03T08:53:42;24.70;99.90
35377;DHT22;21480;51.642;4.834;2022-08-03T08:56:13;24.70;99.90
35377;DHT22;21480;51.642;4.834;2022-08-03T08:58:47;24.90;99.90
35377;DHT22;21480;51.642;4.834;2022-08-03T09:01:13;25.00;99.90
35377;DHT22;21480;51.642;4.834;2022-08-03T09:03:40;25.00;99.90
35377;DHT22;21480;51.642;4.834;2022-08-03T09:06:08;25.20;99.90
35377;DHT22;21480;51.642;4.834;2022-08-03T09:08:34;25.20;99.90
35377;DHT22;21480;51.642;4.834;2022-08-03T09:11:00;25.40;99.90
35377;DHT22;21480;51.642;4.834;2022-08-03T09:13:26;25.50;99.90
35377;DHT22;21480;51.642;4.834;2022-08-03T09:16:27;25.60;99.90
35377;DHT22;21480;51.642;4.834;2022-08-03T09:18:53;25.60;99.90
35377;DHT22;21480;51.642;4.834;2022-08-03T09:21:20;25.70;99.90
35377;DHT22;21480;51.642;4.834;2022-08-03T09:23:49;25.80;99.90
35377;DHT22;21480;51.642;4.834;2022-08-03T09:26:23;25.90;99.90
35377;DHT22;21480;51.642;4.834;2022-08-03T09:31:47;26.00;99.90
35377;DHT22;21480;51.642;4.834;2022-08-03T09:34:16;26.10;99.90
35377;DHT22;21480;51.642;4.834;2022-08-03T09:36:47;26.30;99.90
35377;DHT22;21480;51.642;4.834;2022-08-03T09:39:15;26.30;99.90
35377;DHT22;21480;51.642;4.834;2022-08-03T09:44:39;26.60;99.90
35377;DHT22;21480;51.642;4.834;2022-08-03T09:47:07;26.70;99.90
35377;DHT22;21480;51.642;4.834;2022-08-03T09:49:38;26.80;99.90
35377;DHT22;21480;51.642;4.834;2022-08-03T09:52:14;26.90;99.90
35377;DHT22;21480;51.642;4.834;2022-08-03T09:54:41;27.00;99.90
35377;DHT22;21480;51.642;4.834;2022-08-03T09:57:18;27.10;99.90
35377;DHT22;21480;51.642;4.834;2022-08-03T09:59:45;27.20;99.90
35377;DHT22;21480;51.642;4.834;2022-08-03T10:02:22;27.40;99.90
35377;DHT22;21480;51.642;4.834;2022-08-03T10:04:48;27.50;99.90
35377;DHT22;21480;51.642;4.834;2022-08-03T10:07:17;27.50;99.90
35377;DHT22;21480;51.642;4.834;2022-08-03T10:12:20;27.60;99.90
35377;DHT22;21480;51.642;4.834;2022-08-03T10:14:46;27.60;99.90
35377;DHT22;21480;51.642;4.834;2022-08-03T10:17:12;27.60;99.90
35377;DHT22;21480;51.642;4.834;2022-08-03T10:19:38;27.80;99.90
35377;DHT22;21480;51.642;4.834;2022-08-03T10:24:48;28.00;99.90
35377;DHT22;21480;51.642;4.834;2022-08-03T10:27:16;28.20;99.90
35377;DHT22;21480;51.642;4.834;2022-08-03T10:29:46;28.30;99.90
35377;DHT22;21480;51.642;4.834;2022-08-03T10:32:21;28.40;99.90
35377;DHT22;21480;51.642;4.834;2022-08-03T10:34:50;28.40;99.90
35377;DHT22;21480;51.642;4.834;2022-08-03T10:37:21;28.50;99.90
35377;DHT22;21480;51.642;4.834;2022-08-03T10:39:48;28.50;99.90
35377;DHT22;21480;51.642;4.834;2022-08-03T10:42:23;28.50;99.90
35377;DHT22;21480;51.642;4.834;2022-08-03T10:44:59;28.60;99.90
35377;DHT22;21480;51.642;4.834;2022-08-03T10:47:26;28.70;99.90
35377;DHT22;21480;51.642;4.834;2022-08-03T10:49:52;28.80;99.90
35377;DHT22;21480;51.642;4.834;2022-08-03T10:52:17;28.90;99.90
35377;DHT22;21480;51.642;4.834;2022-08-03T10:54:44;29.00;99.90
35377;DHT22;21480;51.642;4.834;2022-08-03T11:00:19;29.00;99.90
35377;DHT22;21480;51.642;4.834;2022-08-03T11:03:08;29.10;99.90
35377;DHT22;21480;51.642;4.834;2022-08-03T11:05:43;29.10;99.90
35377;DHT22;21480;51.642;4.834;2022-08-03T11:08:27;29.20;99.90
35377;DHT22;21480;51.642;4.834;2022-08-03T11:10:59;29.30;99.90
35377;DHT22;21480;51.642;4.834;2022-08-03T11:13:27;29.20;99.90
35377;DHT22;21480;51.642;4.834;2022-08-03T11:15:56;29.30;99.90
35377;DHT22;21480;51.642;4.834;2022-08-03T11:18:23;29.50;99.90
35377;DHT22;21480;51.642;4.834;2022-08-03T11:20:57;29.60;99.90
35377;DHT22;21480;51.642;4.834;2022-08-03T11:23:46;29.60;99.90
35377;DHT22;21480;51.642;4.834;2022-08-03T11:28:43;29.70;99.90
35377;DHT22;21480;51.642;4.834;2022-08-03T11:34:06;29.70;99.90
35377;DHT22;21480;51.642;4.834;2022-08-03T11:39:40;29.80;99.90
35377;DHT22;21480;51.642;4.834;2022-08-03T11:47:23;29.90;99.90
35377;DHT22;21480;51.642;4.834;2022-08-03T11:49:52;29.90;99.90
35377;DHT22;21480;51.642;4.834;2022-08-03T11:52:19;30.00;99.90
35377;DHT22;21480;51.642;4.834;2022-08-03T11:54:50;30.10;99.90
35377;DHT22;21480;51.642;4.834;2022-08-03T11:57:29;30.40;99.90
35377;DHT22;21480;51.642;4.834;2022-08-03T11:59:55;30.90;99.90
35377;DHT22;21480;51.642;4.834;2022-08-03T12:02:21;31.00;99.90
35377;DHT22;21480;51.642;4.834;2022-08-03T12:04:54;31.40;99.90
35377;DHT22;21480;51.642;4.834;2022-08-03T12:07:27;31.60;99.90
35377;DHT22;21480;51.642;4.834;2022-08-03T12:10:13;31.90;99.90
35377;DHT22;21480;51.642;4.834;2022-08-03T12:12:40;32.20;99.90
35377;DHT22;21480;51.642;4.834;2022-08-03T12:15:07;32.30;99.60
35377;DHT22;21480;51.642;4.834;2022-08-03T12:17:38;32.40;99.80
35377;DHT22;21480;51.642;4.834;2022-08-03T12:20:07;32.60;99.20
35377;DHT22;21480;51.642;4.834;2022-08-03T12:22:37;32.30;99.50
35377;DHT22;21480;51.642;4.834;2022-08-03T12:25:04;32.30;99.40
35377;DHT22;21480;51.642;4.834;2022-08-03T12:27:30;32.30;99.30
35377;DHT22;21480;51.642;4.834;2022-08-03T12:29:58;32.50;99.40
35377;DHT22;21480;51.642;4.834;2022-08-03T12:32:24;32.90;98.90
35377;DHT22;21480;51.642;4.834;2022-08-03T12:34:53;32.90;98.30
35377;DHT22;21480;51.642;4.834;2022-08-03T12:37:20;33.00;98.00
35377;DHT22;21480;51.642;4.834;2022-08-03T12:39:55;33.10;97.40
35377;DHT22;21480;51.642;4.834;2022-08-03T12:42:21;33.20;97.90
35377;DHT22;21480;51.642;4.834;2022-08-03T12:44:54;33.50;97.50
35377;DHT22;21480;51.642;4.834;2022-08-03T12:47:19;33.70;96.20
35377;DHT22;21480;51.642;4.834;2022-08-03T12:49:46;33.80;95.70
35377;DHT22;21480;51.642;4.834;2022-08-03T12:52:13;33.90;95.10
35377;DHT22;21480;51.642;4.834;2022-08-03T12:54:38;34.60;94.10
35377;DHT22;21480;51.642;4.834;2022-08-03T12:57:07;35.10;93.80
35377;DHT22;21480;51.642;4.834;2022-08-03T12:59:36;35.30;92.90
35377;DHT22;21480;51.642;4.834;2022-08-03T13:02:03;36.00;92.00
35377;DHT22;21480;51.642;4.834;2022-08-03T13:04:31;36.00;91.90
35377;DHT22;21480;51.642;4.834;2022-08-03T13:07:01;35.80;90.80
35377;DHT22;21480;51.642;4.834;2022-08-03T13:09:28;36.40;91.40
35377;DHT22;21480;51.642;4.834;2022-08-03T13:12:14;36.80;88.80
35377;DHT22;21480;51.642;4.834;2022-08-03T13:14:42;37.20;87.40
35377;DHT22;21480;51.642;4.834;2022-08-03T13:17:08;37.60;85.70
35377;DHT22;21480;51.642;4.834;2022-08-03T13:19:34;37.30;85.10
35377;DHT22;21480;51.642;4.834;2022-08-03T13:22:09;37.70;82.50
35377;DHT22;21480;51.642;4.834;2022-08-03T13:24:35;37.60;82.10
35377;DHT22;21480;51.642;4.834;2022-08-03T13:27:01;37.20;80.80
35377;DHT22;21480;51.642;4.834;2022-08-03T13:29:29;36.90;84.20
35377;DHT22;21480;51.642;4.834;2022-08-03T13:31:55;37.70;82.70
35377;DHT22;21480;51.642;4.834;2022-08-03T13:34:20;38.50;79.30
35377;DHT22;21480;51.642;4.834;2022-08-03T13:36:46;38.50;78.40
35377;DHT22;21480;51.642;4.834;2022-08-03T13:39:12;38.60;78.00
35377;DHT22;21480;51.642;4.834;2022-08-03T13:41:37;38.80;77.60
35377;DHT22;21480;51.642;4.834;2022-08-03T13:44:03;39.10;73.80
35377;DHT22;21480;51.642;4.834;2022-08-03T13:46:29;38.60;74.40
35377;DHT22;21480;51.642;4.834;2022-08-03T13:48:54;38.20;75.10
35377;DHT22;21480;51.642;4.834;2022-08-03T13:51:20;38.50;76.00
35377;DHT22;21480;51.642;4.834;2022-08-03T13:53:46;38.40;74.30
35377;DHT22;21480;51.642;4.834;2022-08-03T13:56:11;37.20;77.40
35377;DHT22;21480;51.642;4.834;2022-08-03T13:58:37;37.70;77.10
35377;DHT22;21480;51.642;4.834;2022-08-03T14:01:03;38.10;75.90
35377;DHT22;21480;51.642;4.834;2022-08-03T14:03:29;38.90;73.80
35377;DHT22;21480;51.642;4.834;2022-08-03T14:05:55;37.90;73.60
35377;DHT22;21480;51.642;4.834;2022-08-03T14:08:20;37.80;74.70
35377;DHT22;21480;51.642;4.834;2022-08-03T14:10:46;37.30;76.30
35377;DHT22;21480;51.642;4.834;2022-08-03T14:13:12;37.90;75.90
35377;DHT22;21480;51.642;4.834;2022-08-03T14:15:40;37.70;75.70
35377;DHT22;21480;51.642;4.834;2022-08-03T14:18:06;38.70;73.80
35377;DHT22;21480;51.642;4.834;2022-08-03T14:20:32;38.20;73.20
35377;DHT22;21480;51.642;4.834;2022-08-03T14:22:58;37.40;75.50
35377;DHT22;21480;51.642;4.834;2022-08-03T14:25:24;37.60;76.90
35377;DHT22;21480;51.642;4.834;2022-08-03T14:27:49;37.10;76.00
35377;DHT22;21480;51.642;4.834;2022-08-03T14:30:15;37.20;76.00
35377;DHT22;21480;51.642;4.834;2022-08-03T14:32:41;38.20;74.50
35377;DHT22;21480;51.642;4.834;2022-08-03T14:35:07;37.90;73.70
35377;DHT22;21480;51.642;4.834;2022-08-03T14:37:33;37.90;74.80
35377;DHT22;21480;51.642;4.834;2022-08-03T14:39:59;38.90;73.20
35377;DHT22;21480;51.642;4.834;2022-08-03T14:42:24;39.10;73.00
35377;DHT22;21480;51.642;4.834;2022-08-03T14:44:50;39.40;70.60
35377;DHT22;21480;51.642;4.834;2022-08-03T14:47:16;39.80;68.90
35377;DHT22;21480;51.642;4.834;2022-08-03T14:49:42;40.10;70.00
35377;DHT22;21480;51.642;4.834;2022-08-03T14:52:07;40.90;67.70
35377;DHT22;21480;51.642;4.834;2022-08-03T14:54:34;41.00;66.50
35377;DHT22;21480;51.642;4.834;2022-08-03T14:56:59;40.80;65.90
35377;DHT22;21480;51.642;4.834;2022-08-03T14:59:25;41.30;65.30
35377;DHT22;21480;51.642;4.834;2022-08-03T15:01:51;40.40;65.70
35377;DHT22;21480;51.642;4.834;2022-08-03T15:04:17;39.40;66.20
35377;DHT22;21480;51.642;4.834;2022-08-03T15:06:43;39.60;66.30
35377;DHT22;21480;51.642;4.834;2022-08-03T15:09:09;40.00;66.30
35377;DHT22;21480;51.642;4.834;2022-08-03T15:11:35;40.60;64.80
35377;DHT22;21480;51.642;4.834;2022-08-03T15:14:01;40.70;65.30
35377;DHT22;21480;51.642;4.834;2022-08-03T15:16:26;41.20;63.30
35377;DHT22;21480;51.642;4.834;2022-08-03T15:18:52;41.10;62.70
35377;DHT22;21480;51.642;4.834;2022-08-03T15:21:18;41.10;62.80
35377;DHT22;21480;51.642;4.834;2022-08-03T15:23:43;41.50;63.40
35377;DHT22;21480;51.642;4.834;2022-08-03T15:26:09;41.50;60.90
35377;DHT22;21480;51.642;4.834;2022-08-03T15:28:36;40.80;61.60
35377;DHT22;21480;51.642;4.834;2022-08-03T15:31:02;40.20;63.60
35377;DHT22;21480;51.642;4.834;2022-08-03T15:33:28;39.70;63.60
35377;DHT22;21480;51.642;4.834;2022-08-03T15:35:55;40.00;63.40
35377;DHT22;21480;51.642;4.834;2022-08-03T15:38:21;40.60;61.30
35377;DHT22;21480;51.642;4.834;2022-08-03T15:40:49;40.40;61.00
35377;DHT22;21480;51.642;4.834;2022-08-03T15:43:15;40.00;63.70
35377;DHT22;21480;51.642;4.834;2022-08-03T15:45:41;40.30;62.40
35377;DHT22;21480;51.642;4.834;2022-08-03T15:48:09;40.20;63.80
35377;DHT22;21480;51.642;4.834;2022-08-03T15:50:35;39.80;62.10
35377;DHT22;21480;51.642;4.834;2022-08-03T15:53:00;40.20;63.80
35377;DHT22;21480;51.642;4.834;2022-08-03T15:55:26;40.20;62.50
35377;DHT22;21480;51.642;4.834;2022-08-03T15:57:52;40.00;62.80
35377;DHT22;21480;51.642;4.834;2022-08-03T16:00:18;40.40;62.20
35377;DHT22;21480;51.642;4.834;2022-08-03T16:02:43;40.40;61.00
35377;DHT22;21480;51.642;4.834;2022-08-03T16:05:09;40.60;61.30
35377;DHT22;21480;51.642;4.834;2022-08-03T16:07:35;40.30;61.60
35377;DHT22;21480;51.642;4.834;2022-08-03T16:10:15;40.10;62.00
35377;DHT22;21480;51.642;4.834;2022-08-03T16:12:41;39.50;63.20
35377;DHT22;21480;51.642;4.834;2022-08-03T16:15:09;39.40;63.90
35377;DHT22;21480;51.642;4.834;2022-08-03T16:17:35;39.00;64.40